createdAt,value
2022-10-18T00:01:47.429Z,9.00
2022-10-18T00:04:50.851Z,8.63
2022-10-18T00:07:54.102Z,7.60
2022-10-18T00:10:59.141Z,7.03
2022-10-18T00:14:02.827Z,7.67
2022-10-18T00:17:06.199Z,7.87
2022-10-18T00:20:10.871Z,8.27
2022-10-18T00:23:14.120Z,8.50
2022-10-18T00:26:22.162Z,8.23
2022-10-18T00:29:25.513Z,8.73
2022-10-18T00:32:29.064Z,8.13
2022-10-18T00:35:35.211Z,7.80
2022-10-18T00:38:39.079Z,7.97
2022-10-18T00:41:43.924Z,7.27
2022-10-18T00:45:15.643Z,7.80
2022-10-18T00:48:21.201Z,7.53
2022-10-18T00:51:28.075Z,8.03
2022-10-18T00:54:34.839Z,7.47
2022-10-18T00:57:40.858Z,7.40
2022-10-18T01:00:44.284Z,7.60
2022-10-18T01:03:47.589Z,7.03
2022-10-18T01:06:59.124Z,7.13
2022-10-18T01:10:10.904Z,7.17
2022-10-18T01:13:26.396Z,7.50
2022-10-18T01:16:37.863Z,7.40
2022-10-18T01:20:17.341Z,7.60
2022-10-18T01:23:29.678Z,7.77
2022-10-18T01:26:50.501Z,8.03
2022-10-18T01:30:10.118Z,7.33
2022-10-18T01:33:27.802Z,7.27
2022-10-18T01:36:35.053Z,7.47
2022-10-18T01:39:42.806Z,7.27
2022-10-18T01:42:47.683Z,7.37
2022-10-18T01:45:52.059Z,6.73
2022-10-18T01:48:57.548Z,7.47
2022-10-18T01:52:00.791Z,8.90
2022-10-18T01:55:05.829Z,8.07
2022-10-18T01:58:20.381Z,6.67
2022-10-18T02:01:32.646Z,6.47
2022-10-18T02:04:45.034Z,6.70
2022-10-18T02:08:00.427Z,6.30
2022-10-18T02:11:18.366Z,6.87
2022-10-18T02:14:24.076Z,5.90
2022-10-18T02:17:29.942Z,6.30
2022-10-18T02:20:36.598Z,7.10
2022-10-18T02:23:40.421Z,6.07
2022-10-18T02:26:43.866Z,6.90
2022-10-18T02:29:47.769Z,6.63
2022-10-18T02:32:58.600Z,7.67
2022-10-18T02:36:08.325Z,7.37
2022-10-18T02:39:15.570Z,6.67
2022-10-18T02:42:18.853Z,6.57
2022-10-18T02:45:22.648Z,6.97
2022-10-18T02:48:25.906Z,7.07
2022-10-18T02:51:30.527Z,6.87
2022-10-18T02:54:33.900Z,7.37
2022-10-18T02:57:37.445Z,7.40
2022-10-18T03:00:40.670Z,7.03
2022-10-18T03:03:43.802Z,6.73
2022-10-18T03:06:48.430Z,6.80
2022-10-18T03:09:51.671Z,7.40
2022-10-18T03:12:54.811Z,6.83
2022-10-18T03:15:58.011Z,7.20
2022-10-18T03:19:01.305Z,7.00
2022-10-18T03:22:06.129Z,7.30
2022-10-18T03:25:09.779Z,7.07
2022-10-18T03:28:13.057Z,7.20
2022-10-18T03:31:16.276Z,7.47
2022-10-18T03:34:19.650Z,7.43
2022-10-18T03:37:24.360Z,7.50
2022-10-18T03:40:27.655Z,7.13
2022-10-18T03:43:31.043Z,7.33
2022-10-18T03:46:34.280Z,7.70
2022-10-18T03:49:37.580Z,8.10
2022-10-18T03:52:42.192Z,7.37
2022-10-18T03:55:45.472Z,7.33
2022-10-18T03:58:48.639Z,7.00
2022-10-18T04:01:51.982Z,7.53
2022-10-18T04:04:55.260Z,6.60
2022-10-18T04:07:59.972Z,6.80
2022-10-18T04:11:08.393Z,6.90
2022-10-18T04:14:11.633Z,6.47
2022-10-18T04:17:14.895Z,6.50
2022-10-18T04:20:18.647Z,6.60
2022-10-18T04:23:23.223Z,6.57
2022-10-18T04:26:26.502Z,6.47
2022-10-18T04:29:29.701Z,6.40
2022-10-18T04:32:32.972Z,6.63
2022-10-18T04:35:36.180Z,6.47
2022-10-18T04:38:40.903Z,6.60
2022-10-18T04:41:44.379Z,6.60
2022-10-18T04:44:47.676Z,6.80
2022-10-18T04:47:50.851Z,6.60
2022-10-18T04:50:54.189Z,6.93
2022-10-18T04:53:58.789Z,6.83
2022-10-18T04:57:01.978Z,7.03
2022-10-18T05:00:06.303Z,7.20
2022-10-18T05:03:09.903Z,7.40
2022-10-18T05:06:13.187Z,7.43
2022-10-18T05:09:18.020Z,7.43
2022-10-18T05:12:22.279Z,6.83
2022-10-18T05:15:25.528Z,6.80
2022-10-18T05:18:28.726Z,7.03
2022-10-18T05:21:31.956Z,7.80
2022-10-18T05:24:36.581Z,7.70
2022-10-18T05:27:39.800Z,7.87
2022-10-18T05:30:43.136Z,6.93
2022-10-18T05:33:46.301Z,7.30
2022-10-18T05:36:50.181Z,7.63
2022-10-18T05:39:54.772Z,7.60
2022-10-18T05:42:57.945Z,6.97
2022-10-18T05:46:01.238Z,7.77
2022-10-18T05:49:04.544Z,7.27
2022-10-18T05:52:07.755Z,7.13
2022-10-18T05:55:12.408Z,8.43
2022-10-18T05:58:15.615Z,7.97
2022-10-18T06:01:18.896Z,8.63
2022-10-18T06:04:22.347Z,7.93
2022-10-18T06:07:25.608Z,7.53
2022-10-18T06:10:30.266Z,8.27
2022-10-18T06:13:33.933Z,7.43
2022-10-18T06:19:45.455Z,8.10
2022-10-18T06:22:48.685Z,7.43
2022-10-18T06:25:53.342Z,7.93
2022-10-18T06:28:56.799Z,8.20
2022-10-18T06:32:00.041Z,8.93
2022-10-18T06:35:03.404Z,8.30
2022-10-18T06:38:07.430Z,8.37
2022-10-18T06:41:12.244Z,8.83
2022-10-18T06:44:15.525Z,8.73
2022-10-18T06:47:18.741Z,8.60
2022-10-18T06:50:22.023Z,9.43
2022-10-18T06:53:25.454Z,8.73
2022-10-18T06:56:30.352Z,8.40
2022-10-18T06:59:33.557Z,8.53
2022-10-18T07:02:37.546Z,7.13
2022-10-18T07:05:40.812Z,6.00
2022-10-18T07:08:44.861Z,6.93
2022-10-18T07:11:49.560Z,6.60
2022-10-18T07:14:52.693Z,6.90
2022-10-18T07:17:55.916Z,7.00
2022-10-18T07:20:59.091Z,7.87
2022-10-18T07:24:02.315Z,7.70
2022-10-18T07:27:07.110Z,8.27
2022-10-18T07:30:12.359Z,8.67
2022-10-18T07:33:15.556Z,8.60
2022-10-18T07:36:21.167Z,8.30
2022-10-18T07:39:24.622Z,8.40
2022-10-18T07:42:29.174Z,8.50
2022-10-18T07:45:33.343Z,8.40
2022-10-18T07:48:36.546Z,7.53
2022-10-18T07:51:39.724Z,8.33
2022-10-18T07:54:42.984Z,8.80
2022-10-18T07:57:47.637Z,7.60
2022-10-18T08:00:50.835Z,6.93
2022-10-18T08:03:54.418Z,7.37
2022-10-18T08:06:57.641Z,7.07
2022-10-18T08:10:00.899Z,7.57
2022-10-18T08:13:05.533Z,6.90
2022-10-18T08:16:11.081Z,6.37
2022-10-18T08:19:14.247Z,6.23
2022-10-18T08:22:17.471Z,6.20
2022-10-18T08:25:20.725Z,6.50
2022-10-18T08:28:25.360Z,6.57
2022-10-18T08:31:28.641Z,6.10
2022-10-18T08:34:31.960Z,5.97
2022-10-18T08:37:35.639Z,6.53
2022-10-18T08:40:45.055Z,6.53
2022-10-18T08:43:57.662Z,6.33
2022-10-18T08:47:05.513Z,6.27
2022-10-18T08:50:15.971Z,5.70
2022-10-18T08:53:25.273Z,5.53
2022-10-18T08:56:28.835Z,5.80
2022-10-18T08:59:40.337Z,5.80
2022-10-18T09:02:57.500Z,5.90
2022-10-18T09:06:11.289Z,6.80
2022-10-18T09:09:37.017Z,6.10
2022-10-18T09:12:56.368Z,6.07
2022-10-18T09:16:02.730Z,5.37
2022-10-18T09:19:15.147Z,5.70
2022-10-18T09:22:20.681Z,5.70
2022-10-18T09:25:26.886Z,5.93
2022-10-18T09:28:53.474Z,5.80
2022-10-18T09:32:12.877Z,5.57
2022-10-18T09:35:22.869Z,6.03
2022-10-18T09:38:32.762Z,5.60
2022-10-18T09:41:41.748Z,6.10
2022-10-18T09:44:49.791Z,5.88
2022-10-18T09:48:03.376Z,5.93
2022-10-18T09:51:12.541Z,5.80
2022-10-18T09:54:22.332Z,6.50
2022-10-18T09:57:32.712Z,5.60
2022-10-18T10:00:39.530Z,5.63
2022-10-18T10:03:44.297Z,6.23
2022-10-18T10:06:52.187Z,5.90
2022-10-18T10:09:58.777Z,5.83
2022-10-18T10:13:07.928Z,5.18
2022-10-18T10:16:11.482Z,5.25
2022-10-18T10:19:25.613Z,5.68
2022-10-18T10:22:34.839Z,5.95
2022-10-18T10:25:42.346Z,5.40
2022-10-18T10:28:49.155Z,5.78
2022-10-18T10:32:03.851Z,6.07
2022-10-18T10:35:34.059Z,5.30
2022-10-18T10:38:46.157Z,5.78
2022-10-18T10:41:51.642Z,5.97
2022-10-18T10:44:56.663Z,5.75
2022-10-18T10:48:17.232Z,5.63
2022-10-18T10:51:31.311Z,5.68
2022-10-18T10:54:51.201Z,5.97
2022-10-18T10:57:57.346Z,5.53
2022-10-18T11:01:19.146Z,5.40
2022-10-18T11:04:28.274Z,6.82
2022-10-18T11:07:37.093Z,6.05
2022-10-18T11:10:53.931Z,5.28
2022-10-18T11:14:21.109Z,4.93
2022-10-18T11:17:33.992Z,4.18
2022-10-18T11:20:42.037Z,4.85
2022-10-18T11:23:47.398Z,5.22
2022-10-18T11:26:55.992Z,4.30
2022-10-18T11:30:15.460Z,4.57
2022-10-18T11:33:50.325Z,4.32
2022-10-18T11:37:27.063Z,4.22
2022-10-18T11:40:43.839Z,3.80
2022-10-18T11:44:03.008Z,4.15
2022-10-18T11:47:15.223Z,2.88
2022-10-18T11:50:29.847Z,3.40
2022-10-18T11:53:39.928Z,3.78
2022-10-18T11:56:53.467Z,3.97
2022-10-18T12:00:10.214Z,2.45
2022-10-18T12:03:34.397Z,2.72
2022-10-18T12:06:40.057Z,3.15
2022-10-18T12:12:58.448Z,3.20
2022-10-18T12:16:05.315Z,3.33
2022-10-18T12:19:22.106Z,3.17
2022-10-18T12:22:34.341Z,2.80
2022-10-18T12:25:41.556Z,2.70
2022-10-18T12:28:56.280Z,3.15
2022-10-18T12:32:02.972Z,3.20
2022-10-18T12:35:13.744Z,2.88
2022-10-18T12:38:22.653Z,3.50
2022-10-18T12:41:29.186Z,3.45
2022-10-18T12:44:35.456Z,3.30
2022-10-18T12:47:38.759Z,3.10
2022-10-18T12:50:45.020Z,3.58
2022-10-18T12:53:50.805Z,3.25
2022-10-18T12:56:54.038Z,3.78
2022-10-18T12:59:58.699Z,3.67
2022-10-18T13:03:34.847Z,4.28
2022-10-18T13:07:16.299Z,3.20
2022-10-18T13:10:36.053Z,3.67
2022-10-18T13:13:54.334Z,4.25
2022-10-18T13:17:05.769Z,3.60
2022-10-18T13:20:27.318Z,3.63
2022-10-18T13:23:44.799Z,4.00
2022-10-18T13:27:24.401Z,3.30
2022-10-18T13:30:41.048Z,4.53
2022-10-18T13:33:45.783Z,4.50
2022-10-18T13:36:57.926Z,3.85
2022-10-18T13:40:23.978Z,3.92
2022-10-18T13:44:00.606Z,3.92
2022-10-18T13:47:15.365Z,4.20
2022-10-18T13:50:45.699Z,4.03
2022-10-18T13:53:59.039Z,3.15
2022-10-18T13:57:18.566Z,3.38
2022-10-18T14:00:48.793Z,3.08
2022-10-18T14:04:21.012Z,3.75
2022-10-18T14:07:28.330Z,3.65
2022-10-18T14:10:57.226Z,4.40
2022-10-18T14:14:14.318Z,4.20
2022-10-18T14:17:28.358Z,4.78
2022-10-18T14:20:49.082Z,5.10
2022-10-18T14:23:54.661Z,5.20
2022-10-18T14:27:17.634Z,5.60
2022-10-18T14:30:22.192Z,7.03
2022-10-18T14:33:28.271Z,8.05
2022-10-18T14:36:38.738Z,8.75
2022-10-18T14:39:43.404Z,8.23
2022-10-18T14:42:49.994Z,8.15
2022-10-18T14:45:53.253Z,8.13
2022-10-18T14:48:59.593Z,8.00
2022-10-18T14:52:03.658Z,8.55
2022-10-18T14:55:20.251Z,9.23
2022-10-18T14:58:25.465Z,9.67
2022-10-18T15:01:31.986Z,11.30
2022-10-18T15:04:35.898Z,11.13
2022-10-18T15:07:39.912Z,10.50
2022-10-18T15:10:46.223Z,11.32
2022-10-18T15:13:55.076Z,10.87
2022-10-18T15:17:04.439Z,10.23
2022-10-18T15:20:22.776Z,10.13
2022-10-18T15:23:31.384Z,10.03
2022-10-18T15:26:47.232Z,18.83
2022-10-18T15:29:51.673Z,12.23
2022-10-18T15:32:58.233Z,9.97
2022-10-18T15:36:10.910Z,9.60
2022-10-18T15:39:19.487Z,8.57
2022-10-18T15:42:40.095Z,9.90
2022-10-18T15:49:20.990Z,10.73
2022-10-18T15:52:37.799Z,10.83
2022-10-18T15:55:55.335Z,11.10
2022-10-18T15:59:05.064Z,11.60
2022-10-18T16:02:13.657Z,11.90
2022-10-18T16:05:18.002Z,12.93
2022-10-18T16:08:24.271Z,13.73
2022-10-18T16:11:28.382Z,12.27
2022-10-18T16:14:33.374Z,12.60
2022-10-18T16:17:39.123Z,12.37
2022-10-18T16:20:42.656Z,13.17
2022-10-18T16:23:45.976Z,13.00
2022-10-18T16:27:01.404Z,11.70
2022-10-18T16:30:13.383Z,13.47
2022-10-18T16:33:19.265Z,12.53
2022-10-18T16:36:26.763Z,14.80
2022-10-18T16:39:34.760Z,16.70
2022-10-18T16:42:38.275Z,15.43
2022-10-18T16:45:43.123Z,15.00
2022-10-18T16:48:47.489Z,16.13
2022-10-18T16:51:50.883Z,17.87
2022-10-18T16:54:54.239Z,18.50
2022-10-18T16:57:57.560Z,21.17
2022-10-18T17:01:04.229Z,20.33
2022-10-18T17:04:10.131Z,20.73
2022-10-18T17:07:23.600Z,19.47
2022-10-18T17:10:27.747Z,30.73
2022-10-18T17:13:31.139Z,37.77
2022-10-18T17:16:38.936Z,51.47
2022-10-18T17:19:42.579Z,44.80
2022-10-18T17:22:45.784Z,43.43
2022-10-18T17:26:04.744Z,40.60
2022-10-18T17:29:12.244Z,36.03
2022-10-18T17:32:17.025Z,35.33
2022-10-18T17:35:20.483Z,40.07
2022-10-18T17:38:23.680Z,33.90
2022-10-18T17:41:27.363Z,33.67
2022-10-18T17:44:30.715Z,29.20
2022-10-18T17:47:35.736Z,28.00
2022-10-18T17:50:41.398Z,23.07
2022-10-18T17:53:45.131Z,21.37
2022-10-18T17:56:52.199Z,20.37
2022-10-18T17:59:59.042Z,18.70
2022-10-18T18:03:03.919Z,16.53
2022-10-18T18:06:15.658Z,16.37
2022-10-18T18:09:19.308Z,13.90
2022-10-18T18:12:22.538Z,12.43
2022-10-18T18:15:26.067Z,11.37
2022-10-18T18:18:30.867Z,9.97
2022-10-18T18:21:34.953Z,8.73
2022-10-18T18:24:38.263Z,9.37
2022-10-18T18:27:41.531Z,10.13
2022-10-18T18:30:44.780Z,9.37
2022-10-18T18:33:49.471Z,10.10
2022-10-18T18:36:53.056Z,10.33
2022-10-18T18:39:56.364Z,10.63
2022-10-18T18:43:07.269Z,11.30
2022-10-18T18:46:22.958Z,12.93
2022-10-18T18:49:28.231Z,14.33
2022-10-18T18:52:31.837Z,15.00
2022-10-18T18:55:39.756Z,13.90
2022-10-18T18:58:44.196Z,15.10
2022-10-18T19:01:47.553Z,14.27
2022-10-18T19:04:52.197Z,14.13
2022-10-18T19:07:55.494Z,13.40
2022-10-18T19:10:58.779Z,12.20
2022-10-18T19:14:03.235Z,13.47
2022-10-18T19:17:07.954Z,12.33
2022-10-18T19:20:15.151Z,12.70
2022-10-18T19:23:18.437Z,13.20
2022-10-18T19:26:37.955Z,12.57
2022-10-18T19:29:42.074Z,14.00
2022-10-18T19:32:45.316Z,14.80
2022-10-18T19:35:49.969Z,14.77
2022-10-18T19:38:53.152Z,16.10
2022-10-18T19:41:58.576Z,15.13
2022-10-18T19:45:03.065Z,14.10
2022-10-18T19:48:07.152Z,14.57
2022-10-18T19:51:16.005Z,14.57
2022-10-18T19:54:23.900Z,15.90
2022-10-18T19:57:27.243Z,14.73
2022-10-18T20:00:30.646Z,16.00
2022-10-18T20:03:33.893Z,14.53
2022-10-18T20:06:39.614Z,15.33
2022-10-18T20:09:42.834Z,14.37
2022-10-18T20:12:49.776Z,12.63
2022-10-18T20:15:53.607Z,12.93
2022-10-18T20:18:58.685Z,12.37
2022-10-18T20:22:03.294Z,13.73
2022-10-18T20:25:07.024Z,11.70
2022-10-18T20:28:10.431Z,12.70
2022-10-18T20:31:15.587Z,12.80
2022-10-18T20:34:21.578Z,11.60
2022-10-18T20:37:26.234Z,12.83
2022-10-18T20:40:29.538Z,12.00
2022-10-18T20:43:32.854Z,11.27
2022-10-18T20:46:38.357Z,10.43
2022-10-18T20:49:41.657Z,9.73
2022-10-18T20:52:51.167Z,8.97
2022-10-18T20:56:02.881Z,8.90
2022-10-18T20:59:09.478Z,9.13
2022-10-18T21:02:14.419Z,9.50
2022-10-18T21:05:18.454Z,9.00
2022-10-18T21:08:23.121Z,9.53
2022-10-18T21:11:27.767Z,9.47
2022-10-18T21:14:31.084Z,7.83
2022-10-18T21:17:34.503Z,8.47
2022-10-18T21:20:37.862Z,7.60
2022-10-18T21:23:42.983Z,8.00
2022-10-18T21:26:46.518Z,7.93
2022-10-18T21:29:50.163Z,7.90
2022-10-18T21:32:53.380Z,7.40
2022-10-18T21:35:56.634Z,6.83
2022-10-18T21:39:01.508Z,6.17
2022-10-18T21:42:04.809Z,6.53
2022-10-18T21:45:09.279Z,6.60
2022-10-18T21:48:12.640Z,7.17
2022-10-18T21:51:18.783Z,6.57
2022-10-18T21:54:23.938Z,7.10
2022-10-18T21:57:27.429Z,7.63
2022-10-18T22:00:30.656Z,7.87
2022-10-18T22:03:33.934Z,6.93
2022-10-18T22:06:37.690Z,7.80
2022-10-18T22:09:42.345Z,6.87
2022-10-18T22:12:45.690Z,7.90
2022-10-18T22:15:48.943Z,7.30
2022-10-18T22:18:53.173Z,8.00
2022-10-18T22:21:56.427Z,8.93
2022-10-18T22:25:01.192Z,9.53
2022-10-18T22:28:04.486Z,8.70
2022-10-18T22:31:08.051Z,10.43
2022-10-18T22:34:14.061Z,9.27
2022-10-18T22:37:17.282Z,10.57
2022-10-18T22:40:21.959Z,9.40
2022-10-18T22:43:25.271Z,9.93
2022-10-18T22:46:28.988Z,9.37
2022-10-18T22:49:32.250Z,8.67
2022-10-18T22:52:35.930Z,9.20
2022-10-18T22:55:40.687Z,9.67
2022-10-18T22:58:43.945Z,8.33
2022-10-18T23:01:47.223Z,8.77
2022-10-18T23:04:50.454Z,9.07
2022-10-18T23:07:53.634Z,9.07
2022-10-18T23:11:00.154Z,9.53
2022-10-18T23:14:04.267Z,9.93
2022-10-18T23:17:07.470Z,9.57
2022-10-18T23:20:11.476Z,8.13
2022-10-18T23:23:15.216Z,9.20
2022-10-18T23:26:22.808Z,8.33
2022-10-18T23:29:26.012Z,9.20
2022-10-18T23:32:29.658Z,10.03
2022-10-18T23:35:32.916Z,8.87
2022-10-18T23:38:36.675Z,8.40
2022-10-18T23:41:41.241Z,8.27
2022-10-18T23:44:45.290Z,8.93
2022-10-18T23:47:48.553Z,9.03
2022-10-18T23:50:51.792Z,8.80
2022-10-18T23:53:54.985Z,7.80
2022-10-18T23:56:59.634Z,7.57
